sensor_id;sensor_type;location;lat;lon;timestamp;P1;durP1;ratioP1;P2;durP2;ratioP2
37831;SDS011;23671;38.090;-122.570;2023-05-24T00:01:00;32.53;;;7.93;;
37831;SDS011;23671;38.090;-122.570;2023-05-24T00:03:27;28.60;;;8.43;;
37831;SDS011;23671;38.090;-122.570;2023-05-24T00:06:02;27.73;;;7.45;;
37831;SDS011;23671;38.090;-122.570;2023-05-24T00:08:34;30.77;;;7.63;;
37831;SDS011;23671;38.090;-122.570;2023-05-24T00:11:01;25.13;;;6.88;;
37831;SDS011;23671;38.090;-122.570;2023-05-24T00:13:28;30.15;;;7.38;;
37831;SDS011;23671;38.090;-122.570;2023-05-24T00:15:55;25.38;;;7.47;;
37831;SDS011;23671;38.090;-122.570;2023-05-24T00:18:22;26.23;;;7.28;;
37831;SDS011;23671;38.090;-122.570;2023-05-24T00:20:50;31.30;;;7.90;;
37831;SDS011;23671;38.090;-122.570;2023-05-24T00:23:17;19.80;;;6.75;;
37831;SDS011;23671;38.090;-122.570;2023-05-24T00:25:44;25.63;;;5.95;;
37831;SDS011;23671;38.090;-122.570;2023-05-24T00:28:12;21.70;;;7.15;;
37831;SDS011;23671;38.090;-122.570;2023-05-24T00:30:39;19.65;;;6.40;;
37831;SDS011;23671;38.090;-122.570;2023-05-24T00:33:06;25.80;;;6.55;;
37831;SDS011;23671;38.090;-122.570;2023-05-24T00:35:33;21.70;;;6.15;;
37831;SDS011;23671;38.090;-122.570;2023-05-24T00:38:00;25.05;;;6.35;;
37831;SDS011;23671;38.090;-122.570;2023-05-24T00:40:27;26.65;;;6.63;;
37831;SDS011;23671;38.090;-122.570;2023-05-24T00:42:54;22.33;;;6.72;;
37831;SDS011;23671;38.090;-122.570;2023-05-24T00:45:21;28.35;;;7.32;;
37831;SDS011;23671;38.090;-122.570;2023-05-24T00:47:48;25.08;;;6.63;;
37831;SDS011;23671;38.090;-122.570;2023-05-24T00:50:15;23.27;;;6.32;;
37831;SDS011;23671;38.090;-122.570;2023-05-24T00:52:43;23.00;;;6.57;;
37831;SDS011;23671;38.090;-122.570;2023-05-24T00:55:12;17.50;;;5.80;;
37831;SDS011;23671;38.090;-122.570;2023-05-24T00:57:39;18.98;;;6.05;;
37831;SDS011;23671;38.090;-122.570;2023-05-24T01:00:07;23.33;;;6.38;;
37831;SDS011;23671;38.090;-122.570;2023-05-24T01:02:35;20.38;;;5.65;;
37831;SDS011;23671;38.090;-122.570;2023-05-24T01:05:03;20.50;;;6.57;;
37831;SDS011;23671;38.090;-122.570;2023-05-24T01:10:55;18.67;;;5.47;;
37831;SDS011;23671;38.090;-122.570;2023-05-24T01:13:51;17.20;;;6.13;;
37831;SDS011;23671;38.090;-122.570;2023-05-24T01:16:29;21.10;;;5.75;;
37831;SDS011;23671;38.090;-122.570;2023-05-24T01:19:16;16.10;;;5.25;;
37831;SDS011;23671;38.090;-122.570;2023-05-24T01:24:57;16.15;;;5.55;;
37831;SDS011;23671;38.090;-122.570;2023-05-24T01:27:44;19.67;;;5.50;;
37831;SDS011;23671;38.090;-122.570;2023-05-24T01:30:14;18.05;;;5.60;;
37831;SDS011;23671;38.090;-122.570;2023-05-24T01:32:44;19.17;;;5.78;;
37831;SDS011;23671;38.090;-122.570;2023-05-24T01:35:12;14.63;;;5.40;;
37831;SDS011;23671;38.090;-122.570;2023-05-24T01:37:39;19.25;;;6.13;;
37831;SDS011;23671;38.090;-122.570;2023-05-24T01:40:06;18.30;;;5.70;;
37831;SDS011;23671;38.090;-122.570;2023-05-24T01:42:35;14.38;;;5.53;;
37831;SDS011;23671;38.090;-122.570;2023-05-24T01:45:33;15.68;;;4.70;;
37831;SDS011;23671;38.090;-122.570;2023-05-24T01:48:30;15.27;;;5.20;;
37831;SDS011;23671;38.090;-122.570;2023-05-24T01:51:19;18.15;;;5.55;;
37831;SDS011;23671;38.090;-122.570;2023-05-24T01:53:49;16.40;;;5.25;;
37831;SDS011;23671;38.090;-122.570;2023-05-24T01:56:18;14.35;;;5.18;;
37831;SDS011;23671;38.090;-122.570;2023-05-24T01:58:46;19.23;;;5.17;;
37831;SDS011;23671;38.090;-122.570;2023-05-24T02:01:17;20.80;;;5.40;;
37831;SDS011;23671;38.090;-122.570;2023-05-24T02:03:45;17.02;;;5.45;;
37831;SDS011;23671;38.090;-122.570;2023-05-24T02:06:12;14.30;;;4.60;;
37831;SDS011;23671;38.090;-122.570;2023-05-24T02:08:39;14.98;;;4.75;;
37831;SDS011;23671;38.090;-122.570;2023-05-24T02:11:06;19.80;;;5.18;;
37831;SDS011;23671;38.090;-122.570;2023-05-24T02:13:33;18.67;;;5.43;;
37831;SDS011;23671;38.090;-122.570;2023-05-24T02:16:00;14.77;;;4.90;;
37831;SDS011;23671;38.090;-122.570;2023-05-24T02:20:59;12.93;;;4.25;;
37831;SDS011;23671;38.090;-122.570;2023-05-24T02:23:27;14.87;;;4.33;;
37831;SDS011;23671;38.090;-122.570;2023-05-24T02:25:54;15.57;;;4.97;;
37831;SDS011;23671;38.090;-122.570;2023-05-24T02:28:21;18.80;;;5.13;;
37831;SDS011;23671;38.090;-122.570;2023-05-24T02:30:50;13.85;;;4.38;;
37831;SDS011;23671;38.090;-122.570;2023-05-24T02:33:17;12.75;;;4.97;;
37831;SDS011;23671;38.090;-122.570;2023-05-24T02:35:49;14.85;;;4.40;;
37831;SDS011;23671;38.090;-122.570;2023-05-24T02:38:17;16.02;;;4.57;;
37831;SDS011;23671;38.090;-122.570;2023-05-24T02:40:44;14.05;;;4.88;;
37831;SDS011;23671;38.090;-122.570;2023-05-24T02:43:11;11.85;;;4.88;;
37831;SDS011;23671;38.090;-122.570;2023-05-24T02:45:38;14.35;;;4.50;;
37831;SDS011;23671;38.090;-122.570;2023-05-24T02:48:07;11.85;;;3.97;;
37831;SDS011;23671;38.090;-122.570;2023-05-24T02:50:34;13.82;;;4.22;;
37831;SDS011;23671;38.090;-122.570;2023-05-24T02:53:01;13.32;;;4.85;;
37831;SDS011;23671;38.090;-122.570;2023-05-24T02:55:28;13.43;;;4.32;;
37831;SDS011;23671;38.090;-122.570;2023-05-24T02:57:57;15.82;;;4.30;;
37831;SDS011;23671;38.090;-122.570;2023-05-24T03:00:25;9.85;;;3.80;;
37831;SDS011;23671;38.090;-122.570;2023-05-24T03:02:52;13.38;;;4.53;;
37831;SDS011;23671;38.090;-122.570;2023-05-24T03:05:22;10.73;;;4.53;;
37831;SDS011;23671;38.090;-122.570;2023-05-24T03:07:49;13.65;;;4.00;;
37831;SDS011;23671;38.090;-122.570;2023-05-24T03:10:16;14.38;;;4.90;;
37831;SDS011;23671;38.090;-122.570;2023-05-24T03:12:43;16.15;;;4.50;;
37831;SDS011;23671;38.090;-122.570;2023-05-24T03:15:10;13.95;;;4.55;;
37831;SDS011;23671;38.090;-122.570;2023-05-24T03:17:37;14.02;;;4.53;;
37831;SDS011;23671;38.090;-122.570;2023-05-24T03:20:04;11.48;;;4.18;;
37831;SDS011;23671;38.090;-122.570;2023-05-24T03:22:32;14.38;;;4.40;;
37831;SDS011;23671;38.090;-122.570;2023-05-24T03:24:59;12.82;;;4.60;;
37831;SDS011;23671;38.090;-122.570;2023-05-24T03:27:26;13.02;;;4.43;;
37831;SDS011;23671;38.090;-122.570;2023-05-24T03:29:53;13.43;;;4.43;;
37831;SDS011;23671;38.090;-122.570;2023-05-24T03:32:20;11.05;;;4.30;;
37831;SDS011;23671;38.090;-122.570;2023-05-24T03:34:48;11.97;;;4.73;;
37831;SDS011;23671;38.090;-122.570;2023-05-24T03:37:15;18.95;;;5.15;;
37831;SDS011;23671;38.090;-122.570;2023-05-24T03:39:42;12.18;;;4.82;;
37831;SDS011;23671;38.090;-122.570;2023-05-24T03:42:09;12.75;;;4.50;;
37831;SDS011;23671;38.090;-122.570;2023-05-24T03:44:36;16.23;;;4.88;;
37831;SDS011;23671;38.090;-122.570;2023-05-24T03:47:04;12.38;;;3.65;;
37831;SDS011;23671;38.090;-122.570;2023-05-24T03:49:31;14.30;;;4.82;;
37831;SDS011;23671;38.090;-122.570;2023-05-24T03:51:58;11.75;;;4.28;;
37831;SDS011;23671;38.090;-122.570;2023-05-24T03:54:25;12.60;;;4.13;;
37831;SDS011;23671;38.090;-122.570;2023-05-24T03:56:52;10.48;;;3.97;;
37831;SDS011;23671;38.090;-122.570;2023-05-24T03:59:19;12.75;;;4.32;;
37831;SDS011;23671;38.090;-122.570;2023-05-24T04:01:47;12.25;;;4.28;;
37831;SDS011;23671;38.090;-122.570;2023-05-24T04:04:14;14.57;;;5.30;;
37831;SDS011;23671;38.090;-122.570;2023-05-24T04:06:41;13.00;;;4.38;;
37831;SDS011;23671;38.090;-122.570;2023-05-24T04:09:08;14.65;;;4.35;;
37831;SDS011;23671;38.090;-122.570;2023-05-24T04:11:35;12.52;;;4.18;;
37831;SDS011;23671;38.090;-122.570;2023-05-24T04:14:02;14.57;;;4.82;;
37831;SDS011;23671;38.090;-122.570;2023-05-24T04:16:29;9.88;;;3.50;;
37831;SDS011;23671;38.090;-122.570;2023-05-24T04:19:00;13.30;;;4.03;;
37831;SDS011;23671;38.090;-122.570;2023-05-24T04:21:28;12.02;;;3.72;;
37831;SDS011;23671;38.090;-122.570;2023-05-24T04:23:56;11.45;;;3.85;;
37831;SDS011;23671;38.090;-122.570;2023-05-24T04:26:27;12.18;;;4.25;;
37831;SDS011;23671;38.090;-122.570;2023-05-24T04:28:55;10.40;;;3.63;;
37831;SDS011;23671;38.090;-122.570;2023-05-24T04:31:22;11.40;;;3.83;;
37831;SDS011;23671;38.090;-122.570;2023-05-24T04:33:50;13.57;;;4.28;;
37831;SDS011;23671;38.090;-122.570;2023-05-24T04:36:17;11.07;;;4.25;;
37831;SDS011;23671;38.090;-122.570;2023-05-24T04:38:44;12.18;;;3.80;;
37831;SDS011;23671;38.090;-122.570;2023-05-24T04:41:11;9.88;;;3.63;;
37831;SDS011;23671;38.090;-122.570;2023-05-24T04:43:39;10.05;;;3.88;;
37831;SDS011;23671;38.090;-122.570;2023-05-24T04:46:06;10.52;;;3.08;;
37831;SDS011;23671;38.090;-122.570;2023-05-24T04:48:33;11.00;;;3.88;;
37831;SDS011;23671;38.090;-122.570;2023-05-24T04:51:00;11.02;;;4.55;;
37831;SDS011;23671;38.090;-122.570;2023-05-24T04:53:27;12.73;;;4.30;;
37831;SDS011;23671;38.090;-122.570;2023-05-24T04:55:54;15.27;;;3.58;;
37831;SDS011;23671;38.090;-122.570;2023-05-24T04:58:21;9.32;;;3.78;;
37831;SDS011;23671;38.090;-122.570;2023-05-24T05:00:48;11.52;;;4.03;;
37831;SDS011;23671;38.090;-122.570;2023-05-24T05:03:15;14.40;;;4.07;;
37831;SDS011;23671;38.090;-122.570;2023-05-24T05:05:43;12.82;;;3.97;;
37831;SDS011;23671;38.090;-122.570;2023-05-24T05:08:10;9.95;;;3.90;;
37831;SDS011;23671;38.090;-122.570;2023-05-24T05:10:38;10.02;;;3.45;;
37831;SDS011;23671;38.090;-122.570;2023-05-24T05:13:05;10.75;;;3.83;;
37831;SDS011;23671;38.090;-122.570;2023-05-24T05:15:32;15.85;;;3.85;;
37831;SDS011;23671;38.090;-122.570;2023-05-24T05:17:59;11.35;;;3.42;;
37831;SDS011;23671;38.090;-122.570;2023-05-24T05:20:26;12.23;;;3.90;;
37831;SDS011;23671;38.090;-122.570;2023-05-24T05:22:53;10.60;;;4.25;;
37831;SDS011;23671;38.090;-122.570;2023-05-24T05:25:20;9.07;;;3.28;;
37831;SDS011;23671;38.090;-122.570;2023-05-24T05:27:47;9.93;;;3.65;;
37831;SDS011;23671;38.090;-122.570;2023-05-24T05:30:15;10.35;;;3.65;;
37831;SDS011;23671;38.090;-122.570;2023-05-24T05:32:42;8.68;;;3.30;;
37831;SDS011;23671;38.090;-122.570;2023-05-24T05:35:09;11.90;;;3.88;;
37831;SDS011;23671;38.090;-122.570;2023-05-24T05:37:36;9.70;;;3.47;;
37831;SDS011;23671;38.090;-122.570;2023-05-24T05:40:03;10.13;;;3.53;;
37831;SDS011;23671;38.090;-122.570;2023-05-24T05:42:30;9.93;;;3.42;;
37831;SDS011;23671;38.090;-122.570;2023-05-24T05:44:57;9.90;;;2.88;;
37831;SDS011;23671;38.090;-122.570;2023-05-24T05:47:24;12.20;;;4.13;;
37831;SDS011;23671;38.090;-122.570;2023-05-24T05:49:51;12.55;;;3.63;;
37831;SDS011;23671;38.090;-122.570;2023-05-24T05:52:18;11.48;;;3.63;;
37831;SDS011;23671;38.090;-122.570;2023-05-24T05:54:45;9.13;;;3.08;;
37831;SDS011;23671;38.090;-122.570;2023-05-24T05:57:12;10.27;;;3.58;;
37831;SDS011;23671;38.090;-122.570;2023-05-24T05:59:40;11.05;;;3.72;;
37831;SDS011;23671;38.090;-122.570;2023-05-24T06:02:07;16.52;;;4.55;;
37831;SDS011;23671;38.090;-122.570;2023-05-24T06:04:36;10.75;;;3.90;;
37831;SDS011;23671;38.090;-122.570;2023-05-24T06:07:04;12.30;;;3.60;;
37831;SDS011;23671;38.090;-122.570;2023-05-24T06:09:31;11.55;;;3.30;;
37831;SDS011;23671;38.090;-122.570;2023-05-24T06:11:58;11.23;;;3.35;;
37831;SDS011;23671;38.090;-122.570;2023-05-24T06:14:25;9.75;;;3.55;;
37831;SDS011;23671;38.090;-122.570;2023-05-24T06:16:52;14.00;;;3.80;;
37831;SDS011;23671;38.090;-122.570;2023-05-24T06:19:19;13.27;;;3.55;;
37831;SDS011;23671;38.090;-122.570;2023-05-24T06:21:46;16.05;;;3.97;;
37831;SDS011;23671;38.090;-122.570;2023-05-24T06:24:15;12.43;;;4.30;;
37831;SDS011;23671;38.090;-122.570;2023-05-24T06:26:49;13.82;;;3.72;;
37831;SDS011;23671;38.090;-122.570;2023-05-24T06:29:17;11.75;;;4.10;;
37831;SDS011;23671;38.090;-122.570;2023-05-24T06:31:46;10.23;;;3.50;;
37831;SDS011;23671;38.090;-122.570;2023-05-24T06:34:13;11.65;;;4.28;;
37831;SDS011;23671;38.090;-122.570;2023-05-24T06:36:45;10.98;;;3.45;;
37831;SDS011;23671;38.090;-122.570;2023-05-24T06:39:15;13.00;;;3.70;;
37831;SDS011;23671;38.090;-122.570;2023-05-24T06:41:43;11.10;;;3.83;;
37831;SDS011;23671;38.090;-122.570;2023-05-24T06:44:11;12.18;;;3.28;;
37831;SDS011;23671;38.090;-122.570;2023-05-24T06:46:38;13.40;;;3.88;;
37831;SDS011;23671;38.090;-122.570;2023-05-24T06:49:05;14.30;;;4.22;;
37831;SDS011;23671;38.090;-122.570;2023-05-24T06:51:32;14.40;;;4.57;;
37831;SDS011;23671;38.090;-122.570;2023-05-24T06:54:02;11.82;;;3.78;;
37831;SDS011;23671;38.090;-122.570;2023-05-24T06:56:29;12.07;;;3.13;;
37831;SDS011;23671;38.090;-122.570;2023-05-24T06:58:57;13.05;;;4.43;;
37831;SDS011;23671;38.090;-122.570;2023-05-24T07:01:25;13.68;;;4.00;;
37831;SDS011;23671;38.090;-122.570;2023-05-24T07:03:53;10.45;;;3.15;;
37831;SDS011;23671;38.090;-122.570;2023-05-24T07:06:21;12.05;;;4.28;;
37831;SDS011;23671;38.090;-122.570;2023-05-24T07:08:49;11.15;;;3.72;;
37831;SDS011;23671;38.090;-122.570;2023-05-24T07:11:16;8.68;;;3.08;;
37831;SDS011;23671;38.090;-122.570;2023-05-24T07:13:43;9.82;;;2.75;;
37831;SDS011;23671;38.090;-122.570;2023-05-24T07:16:10;11.55;;;3.53;;
37831;SDS011;23671;38.090;-122.570;2023-05-24T07:18:37;12.05;;;3.47;;
37831;SDS011;23671;38.090;-122.570;2023-05-24T07:21:05;12.93;;;3.77;;
37831;SDS011;23671;38.090;-122.570;2023-05-24T07:23:34;13.10;;;3.80;;
37831;SDS011;23671;38.090;-122.570;2023-05-24T07:26:02;12.68;;;3.92;;
37831;SDS011;23671;38.090;-122.570;2023-05-24T07:28:29;13.57;;;3.60;;
37831;SDS011;23671;38.090;-122.570;2023-05-24T07:30:56;14.05;;;4.30;;
37831;SDS011;23671;38.090;-122.570;2023-05-24T07:33:25;11.00;;;3.60;;
37831;SDS011;23671;38.090;-122.570;2023-05-24T07:35:52;11.85;;;4.07;;
37831;SDS011;23671;38.090;-122.570;2023-05-24T07:38:19;11.52;;;3.83;;
37831;SDS011;23671;38.090;-122.570;2023-05-24T07:40:46;15.60;;;4.30;;
37831;SDS011;23671;38.090;-122.570;2023-05-24T07:43:14;11.05;;;3.47;;
37831;SDS011;23671;38.090;-122.570;2023-05-24T07:45:41;10.82;;;3.22;;
37831;SDS011;23671;38.090;-122.570;2023-05-24T07:48:08;13.32;;;3.90;;
37831;SDS011;23671;38.090;-122.570;2023-05-24T07:50:35;11.70;;;3.83;;
37831;SDS011;23671;38.090;-122.570;2023-05-24T07:53:02;12.57;;;3.42;;
37831;SDS011;23671;38.090;-122.570;2023-05-24T07:55:30;12.52;;;3.83;;
37831;SDS011;23671;38.090;-122.570;2023-05-24T07:57:57;12.82;;;3.30;;
37831;SDS011;23671;38.090;-122.570;2023-05-24T08:00:24;9.90;;;3.30;;
37831;SDS011;23671;38.090;-122.570;2023-05-24T08:02:52;9.20;;;3.38;;
37831;SDS011;23671;38.090;-122.570;2023-05-24T08:05:19;9.23;;;3.53;;
37831;SDS011;23671;38.090;-122.570;2023-05-24T08:07:46;13.75;;;3.60;;
37831;SDS011;23671;38.090;-122.570;2023-05-24T08:10:13;11.68;;;3.97;;
37831;SDS011;23671;38.090;-122.570;2023-05-24T08:12:40;11.40;;;3.80;;
37831;SDS011;23671;38.090;-122.570;2023-05-24T08:15:08;13.25;;;3.50;;
37831;SDS011;23671;38.090;-122.570;2023-05-24T08:17:35;8.52;;;3.30;;
37831;SDS011;23671;38.090;-122.570;2023-05-24T08:22:33;7.20;;;2.95;;
37831;SDS011;23671;38.090;-122.570;2023-05-24T08:25:01;10.73;;;3.20;;
37831;SDS011;23671;38.090;-122.570;2023-05-24T08:27:29;11.80;;;3.63;;
37831;SDS011;23671;38.090;-122.570;2023-05-24T08:29:57;10.50;;;3.63;;
37831;SDS011;23671;38.090;-122.570;2023-05-24T08:32:24;9.13;;;3.10;;
37831;SDS011;23671;38.090;-122.570;2023-05-24T08:34:51;11.75;;;3.60;;
37831;SDS011;23671;38.090;-122.570;2023-05-24T08:37:19;10.90;;;3.00;;
37831;SDS011;23671;38.090;-122.570;2023-05-24T08:39:47;9.60;;;3.33;;
37831;SDS011;23671;38.090;-122.570;2023-05-24T08:42:15;11.50;;;3.15;;
37831;SDS011;23671;38.090;-122.570;2023-05-24T08:44:51;9.50;;;3.42;;
37831;SDS011;23671;38.090;-122.570;2023-05-24T08:47:27;9.68;;;3.72;;
37831;SDS011;23671;38.090;-122.570;2023-05-24T08:49:56;9.60;;;3.50;;
37831;SDS011;23671;38.090;-122.570;2023-05-24T08:52:23;8.75;;;3.50;;
37831;SDS011;23671;38.090;-122.570;2023-05-24T08:54:52;11.10;;;3.47;;
37831;SDS011;23671;38.090;-122.570;2023-05-24T08:57:20;10.77;;;3.83;;
37831;SDS011;23671;38.090;-122.570;2023-05-24T08:59:47;9.30;;;3.20;;
37831;SDS011;23671;38.090;-122.570;2023-05-24T09:02:15;9.30;;;3.28;;
37831;SDS011;23671;38.090;-122.570;2023-05-24T09:04:42;9.43;;;3.40;;
37831;SDS011;23671;38.090;-122.570;2023-05-24T09:07:12;9.77;;;3.58;;
37831;SDS011;23671;38.090;-122.570;2023-05-24T09:09:42;9.30;;;3.67;;
37831;SDS011;23671;38.090;-122.570;2023-05-24T09:12:17;8.60;;;3.22;;
37831;SDS011;23671;38.090;-122.570;2023-05-24T09:14:47;13.02;;;3.50;;
37831;SDS011;23671;38.090;-122.570;2023-05-24T09:17:16;10.50;;;4.03;;
37831;SDS011;23671;38.090;-122.570;2023-05-24T09:22:12;10.95;;;3.70;;
37831;SDS011;23671;38.090;-122.570;2023-05-24T09:24:47;10.30;;;3.42;;
37831;SDS011;23671;38.090;-122.570;2023-05-24T09:27:17;9.52;;;3.35;;
37831;SDS011;23671;38.090;-122.570;2023-05-24T09:29:48;10.65;;;3.72;;
37831;SDS011;23671;38.090;-122.570;2023-05-24T09:32:18;15.13;;;3.60;;
37831;SDS011;23671;38.090;-122.570;2023-05-24T09:34:49;10.02;;;4.07;;
37831;SDS011;23671;38.090;-122.570;2023-05-24T09:37:21;9.40;;;3.50;;
37831;SDS011;23671;38.090;-122.570;2023-05-24T09:39:51;11.00;;;3.80;;
37831;SDS011;23671;38.090;-122.570;2023-05-24T09:42:22;11.23;;;3.60;;
37831;SDS011;23671;38.090;-122.570;2023-05-24T09:44:59;12.63;;;3.92;;
37831;SDS011;23671;38.090;-122.570;2023-05-24T09:47:37;10.85;;;3.55;;
37831;SDS011;23671;38.090;-122.570;2023-05-24T09:50:10;9.55;;;3.28;;
37831;SDS011;23671;38.090;-122.570;2023-05-24T09:52:39;10.73;;;3.47;;
37831;SDS011;23671;38.090;-122.570;2023-05-24T09:55:16;10.00;;;3.45;;
37831;SDS011;23671;38.090;-122.570;2023-05-24T09:57:51;13.60;;;3.85;;
37831;SDS011;23671;38.090;-122.570;2023-05-24T10:00:29;10.75;;;4.30;;
37831;SDS011;23671;38.090;-122.570;2023-05-24T10:03:02;11.43;;;3.83;;
37831;SDS011;23671;38.090;-122.570;2023-05-24T10:05:35;12.68;;;3.35;;
37831;SDS011;23671;38.090;-122.570;2023-05-24T10:08:03;13.25;;;3.67;;
37831;SDS011;23671;38.090;-122.570;2023-05-24T10:10:31;9.05;;;3.03;;
37831;SDS011;23671;38.090;-122.570;2023-05-24T10:12:59;10.75;;;3.45;;
37831;SDS011;23671;38.090;-122.570;2023-05-24T10:15:27;9.88;;;3.33;;
37831;SDS011;23671;38.090;-122.570;2023-05-24T10:17:55;8.63;;;3.38;;
37831;SDS011;23671;38.090;-122.570;2023-05-24T10:22:51;12.90;;;3.85;;
37831;SDS011;23671;38.090;-122.570;2023-05-24T10:25:26;9.98;;;3.45;;
37831;SDS011;23671;38.090;-122.570;2023-05-24T10:27:55;7.65;;;3.20;;
37831;SDS011;23671;38.090;-122.570;2023-05-24T10:30:30;9.10;;;3.35;;
37831;SDS011;23671;38.090;-122.570;2023-05-24T10:33:04;12.05;;;3.63;;
37831;SDS011;23671;38.090;-122.570;2023-05-24T10:35:35;11.38;;;3.67;;
37831;SDS011;23671;38.090;-122.570;2023-05-24T10:38:07;9.52;;;3.30;;
37831;SDS011;23671;38.090;-122.570;2023-05-24T10:40:37;12.60;;;3.72;;
37831;SDS011;23671;38.090;-122.570;2023-05-24T10:43:07;10.88;;;3.17;;
37831;SDS011;23671;38.090;-122.570;2023-05-24T10:45:36;12.38;;;3.40;;
37831;SDS011;23671;38.090;-122.570;2023-05-24T10:50:42;7.82;;;3.20;;
37831;SDS011;23671;38.090;-122.570;2023-05-24T10:53:14;10.23;;;3.28;;
37831;SDS011;23671;38.090;-122.570;2023-05-24T10:58:21;10.18;;;3.50;;
37831;SDS011;23671;38.090;-122.570;2023-05-24T11:01:12;13.20;;;3.15;;
37831;SDS011;23671;38.090;-122.570;2023-05-24T11:04:09;10.77;;;3.25;;
37831;SDS011;23671;38.090;-122.570;2023-05-24T11:06:44;12.93;;;3.45;;
37831;SDS011;23671;38.090;-122.570;2023-05-24T11:09:16;11.23;;;3.40;;
37831;SDS011;23671;38.090;-122.570;2023-05-24T11:11:46;11.98;;;3.58;;
37831;SDS011;23671;38.090;-122.570;2023-05-24T11:14:21;9.10;;;3.38;;
37831;SDS011;23671;38.090;-122.570;2023-05-24T11:16:51;11.63;;;3.58;;
37831;SDS011;23671;38.090;-122.570;2023-05-24T11:19:20;12.68;;;3.38;;
37831;SDS011;23671;38.090;-122.570;2023-05-24T11:22:02;9.48;;;3.40;;
37831;SDS011;23671;38.090;-122.570;2023-05-24T11:24:33;14.02;;;3.92;;
37831;SDS011;23671;38.090;-122.570;2023-05-24T11:27:01;12.03;;;4.03;;
37831;SDS011;23671;38.090;-122.570;2023-05-24T11:29:29;12.25;;;3.20;;
37831;SDS011;23671;38.090;-122.570;2023-05-24T11:31:57;10.48;;;3.50;;
37831;SDS011;23671;38.090;-122.570;2023-05-24T11:34:34;12.23;;;3.28;;
37831;SDS011;23671;38.090;-122.570;2023-05-24T11:37:01;9.35;;;3.38;;
37831;SDS011;23671;38.090;-122.570;2023-05-24T11:39:35;9.20;;;2.95;;
37831;SDS011;23671;38.090;-122.570;2023-05-24T11:42:03;9.77;;;3.38;;
37831;SDS011;23671;38.090;-122.570;2023-05-24T11:44:32;10.48;;;3.03;;
37831;SDS011;23671;38.090;-122.570;2023-05-24T11:47:05;12.90;;;4.20;;
37831;SDS011;23671;38.090;-122.570;2023-05-24T11:49:32;11.43;;;3.70;;
37831;SDS011;23671;38.090;-122.570;2023-05-24T11:52:00;11.40;;;3.38;;
37831;SDS011;23671;38.090;-122.570;2023-05-24T11:54:28;12.23;;;3.88;;
37831;SDS011;23671;38.090;-122.570;2023-05-24T11:56:57;13.35;;;3.67;;
37831;SDS011;23671;38.090;-122.570;2023-05-24T11:59:25;9.52;;;3.22;;
37831;SDS011;23671;38.090;-122.570;2023-05-24T12:01:57;10.20;;;3.22;;
37831;SDS011;23671;38.090;-122.570;2023-05-24T12:04:29;12.40;;;3.90;;
37831;SDS011;23671;38.090;-122.570;2023-05-24T12:06:57;12.30;;;3.58;;
37831;SDS011;23671;38.090;-122.570;2023-05-24T12:09:25;7.63;;;3.33;;
37831;SDS011;23671;38.090;-122.570;2023-05-24T12:11:53;13.05;;;3.47;;
37831;SDS011;23671;38.090;-122.570;2023-05-24T12:14:22;10.85;;;3.28;;
37831;SDS011;23671;38.090;-122.570;2023-05-24T12:16:57;12.40;;;3.80;;
37831;SDS011;23671;38.090;-122.570;2023-05-24T12:19:28;9.65;;;3.17;;
37831;SDS011;23671;38.090;-122.570;2023-05-24T12:22:03;12.15;;;3.67;;
37831;SDS011;23671;38.090;-122.570;2023-05-24T12:24:32;9.98;;;3.28;;
37831;SDS011;23671;38.090;-122.570;2023-05-24T12:27:00;14.90;;;4.28;;
37831;SDS011;23671;38.090;-122.570;2023-05-24T12:29:32;13.48;;;3.13;;
37831;SDS011;23671;38.090;-122.570;2023-05-24T12:32:01;11.35;;;3.25;;
37831;SDS011;23671;38.090;-122.570;2023-05-24T12:34:28;12.32;;;3.25;;
37831;SDS011;23671;38.090;-122.570;2023-05-24T12:36:55;12.57;;;3.20;;
37831;SDS011;23671;38.090;-122.570;2023-05-24T12:39:25;13.87;;;3.30;;
37831;SDS011;23671;38.090;-122.570;2023-05-24T12:41:56;9.50;;;3.25;;
37831;SDS011;23671;38.090;-122.570;2023-05-24T12:44:24;11.60;;;3.55;;
37831;SDS011;23671;38.090;-122.570;2023-05-24T12:46:53;9.38;;;3.20;;
37831;SDS011;23671;38.090;-122.570;2023-05-24T12:49:21;11.70;;;3.30;;
37831;SDS011;23671;38.090;-122.570;2023-05-24T12:51:50;11.05;;;3.35;;
37831;SDS011;23671;38.090;-122.570;2023-05-24T12:54:18;11.75;;;3.28;;
37831;SDS011;23671;38.090;-122.570;2023-05-24T12:56:52;11.93;;;3.67;;
37831;SDS011;23671;38.090;-122.570;2023-05-24T12:59:20;12.65;;;3.40;;
37831;SDS011;23671;38.090;-122.570;2023-05-24T13:01:47;12.68;;;3.15;;
37831;SDS011;23671;38.090;-122.570;2023-05-24T13:04:17;13.02;;;3.38;;
37831;SDS011;23671;38.090;-122.570;2023-05-24T13:06:46;11.13;;;3.42;;
37831;SDS011;23671;38.090;-122.570;2023-05-24T13:09:13;14.45;;;3.83;;
37831;SDS011;23671;38.090;-122.570;2023-05-24T13:11:45;14.93;;;4.07;;
37831;SDS011;23671;38.090;-122.570;2023-05-24T13:14:12;16.42;;;3.47;;
37831;SDS011;23671;38.090;-122.570;2023-05-24T13:16:42;12.25;;;3.90;;
37831;SDS011;23671;38.090;-122.570;2023-05-24T13:19:10;12.23;;;3.63;;
37831;SDS011;23671;38.090;-122.570;2023-05-24T13:21:37;12.98;;;3.75;;
37831;SDS011;23671;38.090;-122.570;2023-05-24T13:24:05;13.77;;;4.00;;
37831;SDS011;23671;38.090;-122.570;2023-05-24T13:26:32;12.90;;;4.20;;
37831;SDS011;23671;38.090;-122.570;2023-05-24T13:29:03;16.15;;;3.92;;
37831;SDS011;23671;38.090;-122.570;2023-05-24T13:31:31;11.18;;;3.22;;
37831;SDS011;23671;38.090;-122.570;2023-05-24T13:33:58;12.75;;;3.92;;
37831;SDS011;23671;38.090;-122.570;2023-05-24T13:36:25;11.60;;;3.17;;
37831;SDS011;23671;38.090;-122.570;2023-05-24T13:38:52;13.57;;;3.53;;
37831;SDS011;23671;38.090;-122.570;2023-05-24T13:41:20;9.20;;;3.05;;
37831;SDS011;23671;38.090;-122.570;2023-05-24T13:43:47;12.85;;;3.72;;
37831;SDS011;23671;38.090;-122.570;2023-05-24T13:46:15;14.63;;;4.05;;
37831;SDS011;23671;38.090;-122.570;2023-05-24T13:48:42;12.38;;;3.97;;
37831;SDS011;23671;38.090;-122.570;2023-05-24T13:51:09;13.05;;;3.47;;
37831;SDS011;23671;38.090;-122.570;2023-05-24T13:53:36;13.57;;;3.58;;
37831;SDS011;23671;38.090;-122.570;2023-05-24T13:56:03;9.82;;;3.75;;
37831;SDS011;23671;38.090;-122.570;2023-05-24T13:58:30;15.18;;;3.60;;
37831;SDS011;23671;38.090;-122.570;2023-05-24T14:00:57;10.93;;;3.47;;
37831;SDS011;23671;38.090;-122.570;2023-05-24T14:03:25;13.88;;;3.63;;
37831;SDS011;23671;38.090;-122.570;2023-05-24T14:05:52;12.43;;;3.20;;
37831;SDS011;23671;38.090;-122.570;2023-05-24T14:08:20;9.77;;;3.05;;
37831;SDS011;23671;38.090;-122.570;2023-05-24T14:10:47;10.40;;;3.28;;
37831;SDS011;23671;38.090;-122.570;2023-05-24T14:13:14;14.50;;;3.00;;
37831;SDS011;23671;38.090;-122.570;2023-05-24T14:15:42;12.90;;;3.53;;
37831;SDS011;23671;38.090;-122.570;2023-05-24T14:18:11;13.77;;;3.75;;
37831;SDS011;23671;38.090;-122.570;2023-05-24T14:20:38;12.68;;;3.90;;
37831;SDS011;23671;38.090;-122.570;2023-05-24T14:23:05;9.95;;;2.92;;
37831;SDS011;23671;38.090;-122.570;2023-05-24T14:25:33;12.18;;;3.60;;
37831;SDS011;23671;38.090;-122.570;2023-05-24T14:28:02;14.88;;;3.88;;
37831;SDS011;23671;38.090;-122.570;2023-05-24T14:30:31;11.37;;;3.20;;